Hibbing, MN

4:27 AM CST on December 04, 2016 (GMT -0600)
Chisholm-hibbing | | Change Station

Elev 1352 ft 47.39 °N, 92.84 °W | Updated 10 minutes ago

Light Snow
Light Snow Mist
25 °F
Feels Like 16 °F
N
8
Wind Variable Wind from SE

Today
High -- | Low -- °F
--% Chance of Precip.
Yesterday
High -- | Low -- °F
Precip. -- in
Pressure 29.98 in
Visibility 1.0 miles
Clouds Few 700 ft
Few 1100 ft
Overcast 1700 ft
Windchill 16 °F
Dew Point 23 °F
Humidity 92%
Rainfall 0.01 in
Snow Depth Not available.
7:41 AM 4:21 PM
Waxing Crescent, 21% visible
SPECI KHIB 041017Z AUTO 14007KT 1SM -SN BR FEW007 FEW011 OVC017 M04/M05 A2998 RMK AO2 P0000 T10391050
Pressure 29.98 in
Visibility 1.0 miles
Clouds Few 700 ft
Few 1100 ft
Overcast 1700 ft
Windchill 16 °F
Dew Point 23 °F
Humidity 92%
Rainfall 0.01 in
Snow Depth Not available.
7:41 AM 4:21 PM
Waxing Crescent, 21% visible
SPECI KHIB 041017Z AUTO 14007KT 1SM -SN BR FEW007 FEW011 OVC017 M04/M05 A2998 RMK AO2 P0000 T10391050

10-Day Weather Forecast

Almanac

Astronomy

Dec. 04, 2016 Rise Set
Actual Time
Civil Twilight
Nautical Twilight
Astronomical Twilight
Moon
Length of Visible Light
Length of Day
Tomorrow will be .
, % of the Moon is Illuminated

Today's Extremes

State Highs State Lows

Community

WunderPhotos

Upload Photos

1,955,591 photos uploaded!

WunderBlog® & News

Nearby

Air Quality

  Air Quality AQ Index Pollutant
Not available.

Snow Depth

Station Depth Elevation

Earthquake Activity

City Distance Mag. Time & Date
Minimum magnitude displayed is 2.5.

Coastal Water Temperatures

Place Temperature

Stations

Nearby Weather Stations

Station Location Temp. Windchill Dew Point Humidity Wind Precip. Elev Updated Type
                   

Watches & Warnings

There are currently no watches in effect.